TAF

TERMINAL AERODROME FORECAST
STASIUN METEOROLOGI HANG NADIM BATAM
ADDS - METARS form results

Aviation Digital Data Service (ADDS)

Output produced by METARs form (1206 UTC 23 June 2021)
found at http://www.aviationweather.gov/metar/data/
 
METAR text: WIDD 231130Z 00000KT 9999 FEW014 29/23 Q1011 NOSIG
Conditions at: WIDD (HANG NADIM , ID) observed 1130 UTC 23 June 2021
Temperature: 29.0°C (84°F)
Dewpoint: 23.0°C (73°F) [RH = 70%]
Pressure (altimeter): 29.85 inches Hg (1011.0 mb)
Winds: calm
Visibility: 6 or more miles (10+ km)
Ceiling: at least 12,000 feet AGL
Clouds: few clouds at 1400 feet AGL
Weather: no significant weather observed at this time

Forecast for: WIDD (HANG NADIM , ID)
Text: TAF WIDD 231100Z 2312/2412 23005KT 9999 FEW014
Forecast period: 1200 UTC 23 June 2021 to 1200 UTC 24 June 2021
Forecast type: FROM: standard forecast or significant change
Winds: from the SW (230 degrees) at 6 MPH (5 knots; 2.6 m/s)
Visibility: 6 or more miles (10+ km)
Ceiling: at least 12,000 feet AGL
Clouds: few clouds at 1400 feet AGL
Weather: no significant weather forecast for this period

Informasi TAF dapat diakses juga di http://aviation.bmkg.go.id